This is the latest recevied weather packets stored in our database for station/object KE8WMS. If no packets are shown the sender has not sent any weather packets the latest 1 day(s).
| Time | Temp. | Humidity | Pressure | Rain* | Wind** | Luminosity | Snow |
|---|---|---|---|---|---|---|---|
| 1778042476 | 7.78° C | 99% | 1005.4 hPa | 1.78 mm | - | 0 W/m² | - |
| 1778042173 | 7.78° C | 99% | 1005.4 hPa | 1.78 mm | - | 0 W/m² | - |
| 1778041571 | 7.78° C | 99% | 1005.5 hPa | 0 mm | - | 0 W/m² | - |
| 1778041268 | 7.78° C | 99% | 1005.3 hPa | 0 mm | - | 0 W/m² | - |
| 1778040966 | 8.33° C | 99% | 1005.3 hPa | 1.27 mm | - | 0 W/m² | - |
| 1778039450 | 7.78° C | 99% | 1005.9 hPa | 1.27 mm | - | 0 W/m² | - |
| 1778039147 | 8.33° C | 99% | 1006.2 hPa | 3.05 mm | - | 0 W/m² | - |
| 1778038845 | 8.89° C | 99% | 1006 hPa | 3.05 mm | - | 0 W/m² | - |
| 1778038542 | 8.89° C | 99% | 1006.1 hPa | 1.27 mm | - | 0 W/m² | - |
| 1778037936 | 8.89° C | 99% | 1006 hPa | 4.83 mm | - | 0 W/m² | - |
| 1778037632 | 8.89° C | 99% | 1006 hPa | 1.78 mm | - | 0 W/m² | - |
| 1778037330 | 8.89° C | 99% | 1005.9 hPa | 1.27 mm | - | 0 W/m² | - |
| 1778037027 | 8.89° C | 99% | 1005.8 hPa | 3.05 mm | - | 0 W/m² | - |
| 1778036725 | 8.89° C | 99% | 1005.9 hPa | 3.56 mm | - | 0 W/m² | - |
| 1778036422 | 8.89° C | 99% | 1006 hPa | 4.83 mm | - | 0 W/m² | - |
| 1778036119 | 8.89° C | 99% | 1005.9 hPa | 4.32 mm | - | 0 W/m² | - |
| 1778035815 | 8.89° C | 99% | 1005.8 hPa | 4.32 mm | - | 0 W/m² | - |
| 1778035512 | 8.89° C | 99% | 1005.9 hPa | 4.83 mm | - | 0 W/m² | - |
| 1778024015 | 9.44° C | 99% | 1004.4 hPa | 0 mm | - | 9 W/m² | - |
| 1778023712 | 9.44° C | 99% | 1004.1 hPa | 0 mm | - | 16 W/m² | - |
| 1778023106 | 9.44° C | 99% | 1004.3 hPa | 1.27 mm | - | 22 W/m² | - |
| 1778022804 | 9.44° C | 99% | 1004.7 hPa | 1.27 mm | - | 9 W/m² | - |
| 1778020986 | 10° C | 99% | 1004.7 hPa | 8.89 mm | - | 8 W/m² | - |
| 1778018862 | 10° C | 99% | 1003.9 hPa | 3.05 mm | - | 15 W/m² | - |
| 1778017955 | 10° C | 99% | 1003.8 hPa | 6.1 mm | - | 25 W/m² | - |
* Rain latest hour (hover to see other rain measurements)
** Current wind speed in m/s (hover to see current wind gust speed)